sensor_id;sensor_type;location;lat;lon;timestamp;P1;durP1;ratioP1;P2;durP2;ratioP2
41512;SDS011;27244;59.940;30.280;2022-09-28T00:01:42;5.13;;;3.67;;
41512;SDS011;27244;59.940;30.280;2022-09-28T00:04:10;6.43;;;3.85;;
41512;SDS011;27244;59.940;30.280;2022-09-28T00:06:37;5.78;;;3.80;;
41512;SDS011;27244;59.940;30.280;2022-09-28T00:09:04;4.80;;;3.78;;
41512;SDS011;27244;59.940;30.280;2022-09-28T00:11:31;5.57;;;3.78;;
41512;SDS011;27244;59.940;30.280;2022-09-28T00:13:59;5.85;;;3.70;;
41512;SDS011;27244;59.940;30.280;2022-09-28T00:16:28;5.18;;;3.67;;
41512;SDS011;27244;59.940;30.280;2022-09-28T00:18:57;5.13;;;3.67;;
41512;SDS011;27244;59.940;30.280;2022-09-28T00:21:26;4.45;;;3.15;;
41512;SDS011;27244;59.940;30.280;2022-09-28T00:23:55;4.93;;;3.45;;
41512;SDS011;27244;59.940;30.280;2022-09-28T00:26:40;3.92;;;3.42;;
41512;SDS011;27244;59.940;30.280;2022-09-28T00:29:20;7.43;;;3.60;;
41512;SDS011;27244;59.940;30.280;2022-09-28T00:31:49;4.97;;;3.42;;
41512;SDS011;27244;59.940;30.280;2022-09-28T00:34:17;8.23;;;3.75;;
41512;SDS011;27244;59.940;30.280;2022-09-28T00:36:46;6.63;;;4.00;;
41512;SDS011;27244;59.940;30.280;2022-09-28T00:39:14;5.13;;;3.13;;
41512;SDS011;27244;59.940;30.280;2022-09-28T00:41:41;5.97;;;3.70;;
41512;SDS011;27244;59.940;30.280;2022-09-28T00:47:00;5.13;;;3.85;;
41512;SDS011;27244;59.940;30.280;2022-09-28T00:49:34;6.25;;;3.60;;
41512;SDS011;27244;59.940;30.280;2022-09-28T00:52:09;7.20;;;3.35;;
41512;SDS011;27244;59.940;30.280;2022-09-28T00:54:40;4.93;;;3.28;;
41512;SDS011;27244;59.940;30.280;2022-09-28T00:57:09;4.72;;;3.00;;
41512;SDS011;27244;59.940;30.280;2022-09-28T00:59:36;3.97;;;2.72;;
41512;SDS011;27244;59.940;30.280;2022-09-28T01:02:03;6.22;;;3.38;;
41512;SDS011;27244;59.940;30.280;2022-09-28T01:04:31;4.82;;;2.90;;
41512;SDS011;27244;59.940;30.280;2022-09-28T01:06:58;4.78;;;3.20;;
41512;SDS011;27244;59.940;30.280;2022-09-28T01:09:27;5.03;;;3.50;;
41512;SDS011;27244;59.940;30.280;2022-09-28T01:11:55;4.30;;;3.17;;
41512;SDS011;27244;59.940;30.280;2022-09-28T01:14:21;4.72;;;2.83;;
41512;SDS011;27244;59.940;30.280;2022-09-28T01:16:56;4.72;;;3.30;;
41512;SDS011;27244;59.940;30.280;2022-09-28T01:19:46;3.42;;;2.50;;
41512;SDS011;27244;59.940;30.280;2022-09-28T01:22:44;4.22;;;3.08;;
41512;SDS011;27244;59.940;30.280;2022-09-28T01:25:44;6.68;;;3.25;;
41512;SDS011;27244;59.940;30.280;2022-09-28T01:28:19;7.03;;;3.08;;
41512;SDS011;27244;59.940;30.280;2022-09-28T01:30:54;4.50;;;2.97;;
41512;SDS011;27244;59.940;30.280;2022-09-28T01:33:28;5.53;;;3.08;;
41512;SDS011;27244;59.940;30.280;2022-09-28T01:36:03;4.18;;;3.13;;
41512;SDS011;27244;59.940;30.280;2022-09-28T01:38:38;3.53;;;2.75;;
41512;SDS011;27244;59.940;30.280;2022-09-28T01:41:09;3.33;;;2.83;;
41512;SDS011;27244;59.940;30.280;2022-09-28T01:43:40;3.75;;;2.70;;
41512;SDS011;27244;59.940;30.280;2022-09-28T01:46:12;4.63;;;2.70;;
41512;SDS011;27244;59.940;30.280;2022-09-28T01:48:42;4.00;;;2.78;;
41512;SDS011;27244;59.940;30.280;2022-09-28T01:51:17;5.38;;;3.22;;
41512;SDS011;27244;59.940;30.280;2022-09-28T01:53:50;3.70;;;3.20;;
41512;SDS011;27244;59.940;30.280;2022-09-28T01:56:23;3.70;;;2.95;;
41512;SDS011;27244;59.940;30.280;2022-09-28T01:58:57;5.32;;;2.88;;
41512;SDS011;27244;59.940;30.280;2022-09-28T02:01:30;4.15;;;3.00;;
41512;SDS011;27244;59.940;30.280;2022-09-28T02:04:04;6.68;;;3.00;;
41512;SDS011;27244;59.940;30.280;2022-09-28T02:06:38;4.75;;;2.83;;
41512;SDS011;27244;59.940;30.280;2022-09-28T02:09:11;3.55;;;2.70;;
41512;SDS011;27244;59.940;30.280;2022-09-28T02:11:46;4.97;;;2.97;;
41512;SDS011;27244;59.940;30.280;2022-09-28T02:14:19;4.60;;;3.00;;
41512;SDS011;27244;59.940;30.280;2022-09-28T02:16:48;4.73;;;2.60;;
41512;SDS011;27244;59.940;30.280;2022-09-28T02:19:24;4.22;;;2.78;;
41512;SDS011;27244;59.940;30.280;2022-09-28T02:21:53;4.70;;;2.80;;
41512;SDS011;27244;59.940;30.280;2022-09-28T02:24:26;4.22;;;2.72;;
41512;SDS011;27244;59.940;30.280;2022-09-28T02:27:02;5.93;;;2.80;;
41512;SDS011;27244;59.940;30.280;2022-09-28T02:29:37;3.67;;;2.85;;
41512;SDS011;27244;59.940;30.280;2022-09-28T02:32:04;3.03;;;2.40;;
41512;SDS011;27244;59.940;30.280;2022-09-28T02:34:31;4.00;;;2.58;;
41512;SDS011;27244;59.940;30.280;2022-09-28T02:36:58;4.15;;;2.40;;
41512;SDS011;27244;59.940;30.280;2022-09-28T02:39:27;4.32;;;2.63;;
41512;SDS011;27244;59.940;30.280;2022-09-28T02:41:57;3.25;;;2.30;;
41512;SDS011;27244;59.940;30.280;2022-09-28T02:44:42;3.35;;;2.83;;
41512;SDS011;27244;59.940;30.280;2022-09-28T02:47:20;4.75;;;2.97;;
41512;SDS011;27244;59.940;30.280;2022-09-28T02:49:56;3.42;;;2.47;;
41512;SDS011;27244;59.940;30.280;2022-09-28T02:52:35;3.33;;;2.80;;
41512;SDS011;27244;59.940;30.280;2022-09-28T02:55:18;3.30;;;2.70;;
41512;SDS011;27244;59.940;30.280;2022-09-28T02:57:54;4.15;;;2.30;;
41512;SDS011;27244;59.940;30.280;2022-09-28T03:00:36;3.55;;;2.50;;
41512;SDS011;27244;59.940;30.280;2022-09-28T03:03:11;4.43;;;2.50;;
41512;SDS011;27244;59.940;30.280;2022-09-28T03:05:46;5.05;;;2.85;;
41512;SDS011;27244;59.940;30.280;2022-09-28T03:08:24;4.80;;;2.92;;
41512;SDS011;27244;59.940;30.280;2022-09-28T03:10:57;3.78;;;2.67;;
41512;SDS011;27244;59.940;30.280;2022-09-28T03:13:29;3.75;;;2.90;;
41512;SDS011;27244;59.940;30.280;2022-09-28T03:16:09;4.00;;;2.65;;
41512;SDS011;27244;59.940;30.280;2022-09-28T03:18:38;3.35;;;2.22;;
41512;SDS011;27244;59.940;30.280;2022-09-28T03:21:05;3.72;;;2.20;;
41512;SDS011;27244;59.940;30.280;2022-09-28T03:23:33;4.20;;;2.20;;
41512;SDS011;27244;59.940;30.280;2022-09-28T03:26:00;3.97;;;2.28;;
41512;SDS011;27244;59.940;30.280;2022-09-28T03:28:27;4.15;;;2.10;;
41512;SDS011;27244;59.940;30.280;2022-09-28T03:30:56;3.63;;;2.30;;
41512;SDS011;27244;59.940;30.280;2022-09-28T03:33:24;3.85;;;2.45;;
41512;SDS011;27244;59.940;30.280;2022-09-28T03:35:51;3.00;;;1.90;;
41512;SDS011;27244;59.940;30.280;2022-09-28T03:38:18;2.85;;;2.10;;
41512;SDS011;27244;59.940;30.280;2022-09-28T03:40:51;3.15;;;2.40;;
41512;SDS011;27244;59.940;30.280;2022-09-28T03:43:18;3.22;;;2.25;;
41512;SDS011;27244;59.940;30.280;2022-09-28T03:45:50;3.67;;;2.25;;
41512;SDS011;27244;59.940;30.280;2022-09-28T03:48:19;3.17;;;2.22;;
41512;SDS011;27244;59.940;30.280;2022-09-28T03:50:50;4.18;;;2.50;;
41512;SDS011;27244;59.940;30.280;2022-09-28T03:53:18;3.30;;;2.28;;
41512;SDS011;27244;59.940;30.280;2022-09-28T03:55:45;4.30;;;2.53;;
41512;SDS011;27244;59.940;30.280;2022-09-28T03:58:12;6.57;;;2.60;;
41512;SDS011;27244;59.940;30.280;2022-09-28T04:00:39;5.97;;;2.72;;
41512;SDS011;27244;59.940;30.280;2022-09-28T04:03:06;4.80;;;2.40;;
41512;SDS011;27244;59.940;30.280;2022-09-28T04:05:34;7.20;;;2.92;;
41512;SDS011;27244;59.940;30.280;2022-09-28T04:08:02;6.68;;;2.85;;
41512;SDS011;27244;59.940;30.280;2022-09-28T04:10:29;4.78;;;2.88;;
41512;SDS011;27244;59.940;30.280;2022-09-28T04:12:56;4.22;;;2.80;;
41512;SDS011;27244;59.940;30.280;2022-09-28T04:15:23;5.75;;;2.80;;
41512;SDS011;27244;59.940;30.280;2022-09-28T04:17:51;8.15;;;3.20;;
41512;SDS011;27244;59.940;30.280;2022-09-28T04:20:41;6.38;;;2.72;;
41512;SDS011;27244;59.940;30.280;2022-09-28T04:23:13;7.43;;;2.60;;
41512;SDS011;27244;59.940;30.280;2022-09-28T04:25:40;6.03;;;2.88;;
41512;SDS011;27244;59.940;30.280;2022-09-28T04:28:10;6.07;;;2.60;;
41512;SDS011;27244;59.940;30.280;2022-09-28T04:30:54;5.55;;;2.85;;
41512;SDS011;27244;59.940;30.280;2022-09-28T04:33:21;5.07;;;2.47;;
41512;SDS011;27244;59.940;30.280;2022-09-28T04:35:48;6.20;;;2.95;;
41512;SDS011;27244;59.940;30.280;2022-09-28T04:38:17;7.05;;;2.40;;
41512;SDS011;27244;59.940;30.280;2022-09-28T04:40:44;5.60;;;2.40;;
41512;SDS011;27244;59.940;30.280;2022-09-28T04:43:14;3.22;;;2.25;;
41512;SDS011;27244;59.940;30.280;2022-09-28T04:45:41;4.90;;;2.45;;
41512;SDS011;27244;59.940;30.280;2022-09-28T04:48:10;4.00;;;2.47;;
41512;SDS011;27244;59.940;30.280;2022-09-28T04:50:55;5.07;;;2.38;;
41512;SDS011;27244;59.940;30.280;2022-09-28T04:53:26;4.07;;;2.38;;
41512;SDS011;27244;59.940;30.280;2022-09-28T04:55:57;5.40;;;2.55;;
41512;SDS011;27244;59.940;30.280;2022-09-28T04:58:25;5.43;;;2.60;;
41512;SDS011;27244;59.940;30.280;2022-09-28T05:00:55;3.92;;;2.70;;
41512;SDS011;27244;59.940;30.280;2022-09-28T05:03:58;3.90;;;2.30;;
41512;SDS011;27244;59.940;30.280;2022-09-28T05:06:34;3.67;;;2.10;;
41512;SDS011;27244;59.940;30.280;2022-09-28T05:09:06;5.15;;;2.17;;
41512;SDS011;27244;59.940;30.280;2022-09-28T05:11:33;5.63;;;2.40;;
41512;SDS011;27244;59.940;30.280;2022-09-28T05:14:02;7.63;;;2.08;;
41512;SDS011;27244;59.940;30.280;2022-09-28T05:16:30;5.65;;;2.22;;
41512;SDS011;27244;59.940;30.280;2022-09-28T05:19:16;5.57;;;2.40;;
41512;SDS011;27244;59.940;30.280;2022-09-28T05:21:43;3.53;;;1.88;;
41512;SDS011;27244;59.940;30.280;2022-09-28T05:24:15;3.15;;;2.08;;
41512;SDS011;27244;59.940;30.280;2022-09-28T05:26:47;3.20;;;2.30;;
41512;SDS011;27244;59.940;30.280;2022-09-28T05:29:14;2.63;;;1.90;;
41512;SDS011;27244;59.940;30.280;2022-09-28T05:32:00;2.95;;;2.22;;
41512;SDS011;27244;59.940;30.280;2022-09-28T05:34:34;2.75;;;2.00;;
41512;SDS011;27244;59.940;30.280;2022-09-28T05:37:01;7.15;;;2.15;;
41512;SDS011;27244;59.940;30.280;2022-09-28T05:39:30;3.67;;;1.90;;
41512;SDS011;27244;59.940;30.280;2022-09-28T05:41:57;2.30;;;1.85;;
41512;SDS011;27244;59.940;30.280;2022-09-28T05:44:24;3.67;;;2.10;;
41512;SDS011;27244;59.940;30.280;2022-09-28T05:46:52;6.25;;;2.25;;
41512;SDS011;27244;59.940;30.280;2022-09-28T05:49:19;3.25;;;1.77;;
41512;SDS011;27244;59.940;30.280;2022-09-28T05:51:46;3.05;;;1.85;;
41512;SDS011;27244;59.940;30.280;2022-09-28T05:54:13;2.60;;;1.85;;
41512;SDS011;27244;59.940;30.280;2022-09-28T05:56:45;5.05;;;2.10;;
41512;SDS011;27244;59.940;30.280;2022-09-28T05:59:13;3.00;;;1.98;;
41512;SDS011;27244;59.940;30.280;2022-09-28T06:01:41;5.43;;;2.17;;
41512;SDS011;27244;59.940;30.280;2022-09-28T06:04:09;3.45;;;1.73;;
41512;SDS011;27244;59.940;30.280;2022-09-28T06:06:36;4.88;;;2.00;;
41512;SDS011;27244;59.940;30.280;2022-09-28T06:09:03;6.03;;;2.45;;
41512;SDS011;27244;59.940;30.280;2022-09-28T06:11:36;3.45;;;2.50;;
41512;SDS011;27244;59.940;30.280;2022-09-28T06:14:16;5.05;;;2.53;;
41512;SDS011;27244;59.940;30.280;2022-09-28T06:16:44;6.57;;;3.53;;
41512;SDS011;27244;59.940;30.280;2022-09-28T06:19:11;5.93;;;4.57;;
41512;SDS011;27244;59.940;30.280;2022-09-28T06:21:57;6.05;;;4.55;;
41512;SDS011;27244;59.940;30.280;2022-09-28T06:24:24;9.05;;;5.50;;
41512;SDS011;27244;59.940;30.280;2022-09-28T06:26:51;5.80;;;4.43;;
41512;SDS011;27244;59.940;30.280;2022-09-28T06:29:21;8.88;;;4.40;;
41512;SDS011;27244;59.940;30.280;2022-09-28T06:31:48;7.60;;;4.57;;
41512;SDS011;27244;59.940;30.280;2022-09-28T06:34:16;6.63;;;3.80;;
41512;SDS011;27244;59.940;30.280;2022-09-28T06:36:43;10.15;;;3.88;;
41512;SDS011;27244;59.940;30.280;2022-09-28T06:39:10;4.47;;;3.40;;
41512;SDS011;27244;59.940;30.280;2022-09-28T06:41:38;4.65;;;3.58;;
41512;SDS011;27244;59.940;30.280;2022-09-28T06:44:13;6.93;;;3.72;;
41512;SDS011;27244;59.940;30.280;2022-09-28T06:47:00;4.47;;;3.55;;
41512;SDS011;27244;59.940;30.280;2022-09-28T06:49:52;3.90;;;3.20;;
41512;SDS011;27244;59.940;30.280;2022-09-28T06:52:19;8.25;;;3.20;;
41512;SDS011;27244;59.940;30.280;2022-09-28T06:55:13;5.75;;;3.10;;
41512;SDS011;27244;59.940;30.280;2022-09-28T06:57:42;9.30;;;4.07;;
41512;SDS011;27244;59.940;30.280;2022-09-28T07:00:09;15.40;;;6.30;;
41512;SDS011;27244;59.940;30.280;2022-09-28T07:02:38;14.18;;;7.95;;
41512;SDS011;27244;59.940;30.280;2022-09-28T07:05:26;12.95;;;8.13;;
41512;SDS011;27244;59.940;30.280;2022-09-28T07:08:22;22.08;;;13.68;;
41512;SDS011;27244;59.940;30.280;2022-09-28T07:11:09;24.35;;;16.35;;
41512;SDS011;27244;59.940;30.280;2022-09-28T07:13:42;24.75;;;15.07;;
41512;SDS011;27244;59.940;30.280;2022-09-28T07:16:09;23.42;;;15.52;;
41512;SDS011;27244;59.940;30.280;2022-09-28T07:18:38;23.52;;;16.05;;
41512;SDS011;27244;59.940;30.280;2022-09-28T07:21:06;35.42;;;20.73;;
41512;SDS011;27244;59.940;30.280;2022-09-28T07:23:33;33.80;;;21.40;;
41512;SDS011;27244;59.940;30.280;2022-09-28T07:26:29;40.75;;;23.83;;
41512;SDS011;27244;59.940;30.280;2022-09-28T07:29:11;35.95;;;22.25;;
41512;SDS011;27244;59.940;30.280;2022-09-28T07:31:38;31.65;;;18.38;;
41512;SDS011;27244;59.940;30.280;2022-09-28T07:34:25;27.05;;;14.32;;
41512;SDS011;27244;59.940;30.280;2022-09-28T07:37:01;23.42;;;14.40;;
41512;SDS011;27244;59.940;30.280;2022-09-28T07:39:28;30.00;;;15.93;;
41512;SDS011;27244;59.940;30.280;2022-09-28T07:41:55;27.40;;;15.10;;
41512;SDS011;27244;59.940;30.280;2022-09-28T07:44:21;30.38;;;20.30;;
41512;SDS011;27244;59.940;30.280;2022-09-28T07:46:52;49.92;;;23.30;;
41512;SDS011;27244;59.940;30.280;2022-09-28T07:49:33;53.95;;;26.25;;
41512;SDS011;27244;59.940;30.280;2022-09-28T07:52:15;44.83;;;26.83;;
41512;SDS011;27244;59.940;30.280;2022-09-28T07:55:12;42.88;;;27.77;;
41512;SDS011;27244;59.940;30.280;2022-09-28T07:57:58;50.13;;;28.02;;
41512;SDS011;27244;59.940;30.280;2022-09-28T08:00:46;51.85;;;32.42;;
41512;SDS011;27244;59.940;30.280;2022-09-28T08:03:15;63.00;;;40.40;;
41512;SDS011;27244;59.940;30.280;2022-09-28T08:05:44;62.33;;;37.45;;
41512;SDS011;27244;59.940;30.280;2022-09-28T08:08:11;65.03;;;39.40;;
41512;SDS011;27244;59.940;30.280;2022-09-28T08:10:40;50.88;;;32.45;;
41512;SDS011;27244;59.940;30.280;2022-09-28T08:13:21;40.13;;;23.88;;
41512;SDS011;27244;59.940;30.280;2022-09-28T08:16:12;32.70;;;18.83;;
41512;SDS011;27244;59.940;30.280;2022-09-28T08:18:52;32.80;;;18.50;;
41512;SDS011;27244;59.940;30.280;2022-09-28T08:21:20;27.63;;;16.75;;
41512;SDS011;27244;59.940;30.280;2022-09-28T08:24:06;38.35;;;17.60;;
41512;SDS011;27244;59.940;30.280;2022-09-28T08:26:34;47.47;;;16.75;;
41512;SDS011;27244;59.940;30.280;2022-09-28T08:29:01;43.95;;;15.02;;
41512;SDS011;27244;59.940;30.280;2022-09-28T08:31:47;33.97;;;14.95;;
41512;SDS011;27244;59.940;30.280;2022-09-28T08:34:30;29.90;;;14.88;;
41512;SDS011;27244;59.940;30.280;2022-09-28T08:37:17;31.15;;;17.52;;
41512;SDS011;27244;59.940;30.280;2022-09-28T08:40:23;35.92;;;19.20;;
41512;SDS011;27244;59.940;30.280;2022-09-28T08:43:19;35.20;;;18.52;;
41512;SDS011;27244;59.940;30.280;2022-09-28T08:46:18;33.70;;;20.33;;
41512;SDS011;27244;59.940;30.280;2022-09-28T08:49:07;31.27;;;19.73;;
41512;SDS011;27244;59.940;30.280;2022-09-28T08:51:54;33.25;;;20.63;;
41512;SDS011;27244;59.940;30.280;2022-09-28T08:54:39;31.27;;;20.80;;
41512;SDS011;27244;59.940;30.280;2022-09-28T08:57:21;33.08;;;21.52;;
41512;SDS011;27244;59.940;30.280;2022-09-28T08:59:52;30.48;;;20.60;;
41512;SDS011;27244;59.940;30.280;2022-09-28T09:05:13;29.73;;;19.33;;
41512;SDS011;27244;59.940;30.280;2022-09-28T09:08:06;34.40;;;20.40;;
41512;SDS011;27244;59.940;30.280;2022-09-28T09:10:51;27.58;;;19.35;;
41512;SDS011;27244;59.940;30.280;2022-09-28T09:13:40;28.15;;;18.58;;
41512;SDS011;27244;59.940;30.280;2022-09-28T09:16:26;27.30;;;18.38;;
41512;SDS011;27244;59.940;30.280;2022-09-28T09:19:25;28.65;;;18.83;;
41512;SDS011;27244;59.940;30.280;2022-09-28T09:22:16;29.48;;;19.27;;
41512;SDS011;27244;59.940;30.280;2022-09-28T09:24:48;28.15;;;18.50;;
41512;SDS011;27244;59.940;30.280;2022-09-28T09:27:29;25.73;;;19.23;;
41512;SDS011;27244;59.940;30.280;2022-09-28T09:30:09;27.20;;;18.45;;
41512;SDS011;27244;59.940;30.280;2022-09-28T09:32:49;22.00;;;16.73;;
41512;SDS011;27244;59.940;30.280;2022-09-28T09:35:46;26.15;;;17.58;;
41512;SDS011;27244;59.940;30.280;2022-09-28T09:38:48;25.92;;;19.42;;
41512;SDS011;27244;59.940;30.280;2022-09-28T09:41:54;27.90;;;21.95;;
41512;SDS011;27244;59.940;30.280;2022-09-28T09:44:58;30.70;;;22.52;;
41512;SDS011;27244;59.940;30.280;2022-09-28T09:47:43;27.65;;;22.00;;
41512;SDS011;27244;59.940;30.280;2022-09-28T09:50:23;27.52;;;20.92;;
41512;SDS011;27244;59.940;30.280;2022-09-28T09:52:56;28.55;;;21.77;;
41512;SDS011;27244;59.940;30.280;2022-09-28T09:55:27;26.92;;;20.85;;
41512;SDS011;27244;59.940;30.280;2022-09-28T09:58:33;27.45;;;19.67;;
41512;SDS011;27244;59.940;30.280;2022-09-28T10:01:16;25.65;;;19.25;;
41512;SDS011;27244;59.940;30.280;2022-09-28T10:04:13;30.45;;;21.35;;
41512;SDS011;27244;59.940;30.280;2022-09-28T10:06:45;21.80;;;18.38;;
41512;SDS011;27244;59.940;30.280;2022-09-28T10:09:15;25.85;;;19.50;;
41512;SDS011;27244;59.940;30.280;2022-09-28T10:11:49;24.10;;;19.20;;
41512;SDS011;27244;59.940;30.280;2022-09-28T10:14:17;25.48;;;19.65;;
41512;SDS011;27244;59.940;30.280;2022-09-28T10:17:08;20.65;;;17.80;;
41512;SDS011;27244;59.940;30.280;2022-09-28T10:20:02;25.65;;;20.02;;
41512;SDS011;27244;59.940;30.280;2022-09-28T10:22:55;25.33;;;20.23;;
41512;SDS011;27244;59.940;30.280;2022-09-28T10:25:28;22.92;;;18.92;;
41512;SDS011;27244;59.940;30.280;2022-09-28T10:27:58;24.07;;;20.27;;
41512;SDS011;27244;59.940;30.280;2022-09-28T10:30:26;24.83;;;20.95;;
41512;SDS011;27244;59.940;30.280;2022-09-28T10:32:55;23.15;;;20.75;;
41512;SDS011;27244;59.940;30.280;2022-09-28T10:35:34;25.98;;;21.60;;
41512;SDS011;27244;59.940;30.280;2022-09-28T10:38:12;22.92;;;20.38;;
41512;SDS011;27244;59.940;30.280;2022-09-28T10:40:47;24.08;;;20.13;;
41512;SDS011;27244;59.940;30.280;2022-09-28T10:43:23;22.88;;;19.05;;
41512;SDS011;27244;59.940;30.280;2022-09-28T10:45:59;21.65;;;19.02;;
41512;SDS011;27244;59.940;30.280;2022-09-28T10:48:44;23.38;;;19.35;;
41512;SDS011;27244;59.940;30.280;2022-09-28T10:51:14;27.13;;;19.95;;
41512;SDS011;27244;59.940;30.280;2022-09-28T10:53:56;23.38;;;19.48;;
41512;SDS011;27244;59.940;30.280;2022-09-28T10:56:45;23.85;;;19.48;;
41512;SDS011;27244;59.940;30.280;2022-09-28T10:59:32;21.80;;;18.48;;
41512;SDS011;27244;59.940;30.280;2022-09-28T11:02:22;20.67;;;18.48;;
41512;SDS011;27244;59.940;30.280;2022-09-28T11:05:01;20.42;;;18.23;;
41512;SDS011;27244;59.940;30.280;2022-09-28T11:07:43;19.98;;;17.85;;
41512;SDS011;27244;59.940;30.280;2022-09-28T11:10:17;21.15;;;18.35;;
41512;SDS011;27244;59.940;30.280;2022-09-28T11:12:47;22.08;;;18.67;;
41512;SDS011;27244;59.940;30.280;2022-09-28T11:15:17;19.67;;;17.38;;
41512;SDS011;27244;59.940;30.280;2022-09-28T11:17:50;22.05;;;16.95;;
41512;SDS011;27244;59.940;30.280;2022-09-28T11:20:27;20.42;;;18.00;;
41512;SDS011;27244;59.940;30.280;2022-09-28T11:23:13;21.80;;;19.10;;
41512;SDS011;27244;59.940;30.280;2022-09-28T11:25:44;21.77;;;19.02;;
41512;SDS011;27244;59.940;30.280;2022-09-28T11:28:24;23.15;;;19.95;;
41512;SDS011;27244;59.940;30.280;2022-09-28T11:30:57;23.02;;;19.80;;
41512;SDS011;27244;59.940;30.280;2022-09-28T11:33:31;21.27;;;18.80;;
41512;SDS011;27244;59.940;30.280;2022-09-28T11:36:23;20.73;;;18.45;;
41512;SDS011;27244;59.940;30.280;2022-09-28T11:39:00;20.80;;;17.88;;
41512;SDS011;27244;59.940;30.280;2022-09-28T11:41:47;21.20;;;18.98;;
41512;SDS011;27244;59.940;30.280;2022-09-28T11:44:35;19.98;;;17.60;;
41512;SDS011;27244;59.940;30.280;2022-09-28T11:50:13;21.23;;;19.00;;
41512;SDS011;27244;59.940;30.280;2022-09-28T11:52:49;21.38;;;19.10;;
41512;SDS011;27244;59.940;30.280;2022-09-28T11:55:23;21.55;;;19.35;;
41512;SDS011;27244;59.940;30.280;2022-09-28T11:57:59;23.00;;;19.98;;
41512;SDS011;27244;59.940;30.280;2022-09-28T12:00:32;22.40;;;19.38;;
41512;SDS011;27244;59.940;30.280;2022-09-28T12:03:08;20.60;;;18.40;;
41512;SDS011;27244;59.940;30.280;2022-09-28T12:05:40;22.15;;;19.55;;
41512;SDS011;27244;59.940;30.280;2022-09-28T12:08:15;20.95;;;18.75;;
41512;SDS011;27244;59.940;30.280;2022-09-28T12:10:58;23.27;;;20.20;;
41512;SDS011;27244;59.940;30.280;2022-09-28T12:13:51;22.75;;;20.35;;
41512;SDS011;27244;59.940;30.280;2022-09-28T12:16:24;23.85;;;21.17;;
41512;SDS011;27244;59.940;30.280;2022-09-28T12:19:17;23.30;;;20.05;;
41512;SDS011;27244;59.940;30.280;2022-09-28T12:36:29;34.97;;;29.20;;
41512;SDS011;27244;59.940;30.280;2022-09-28T12:39:13;35.22;;;29.13;;
41512;SDS011;27244;59.940;30.280;2022-09-28T12:42:00;33.88;;;28.23;;
41512;SDS011;27244;59.940;30.280;2022-09-28T12:44:42;38.08;;;29.98;;
41512;SDS011;27244;59.940;30.280;2022-09-28T12:47:24;38.85;;;31.15;;
41512;SDS011;27244;59.940;30.280;2022-09-28T12:50:18;39.05;;;32.00;;
41512;SDS011;27244;59.940;30.280;2022-09-28T12:53:21;39.47;;;31.10;;
41512;SDS011;27244;59.940;30.280;2022-09-28T12:56:10;41.08;;;34.83;;
41512;SDS011;27244;59.940;30.280;2022-09-28T12:58:46;39.90;;;33.50;;
41512;SDS011;27244;59.940;30.280;2022-09-28T13:01:32;41.35;;;34.80;;
41512;SDS011;27244;59.940;30.280;2022-09-28T13:04:20;39.20;;;33.53;;
41512;SDS011;27244;59.940;30.280;2022-09-28T13:07:02;41.90;;;34.47;;
41512;SDS011;27244;59.940;30.280;2022-09-28T13:09:35;42.38;;;35.17;;
41512;SDS011;27244;59.940;30.280;2022-09-28T13:12:18;43.05;;;35.88;;
41512;SDS011;27244;59.940;30.280;2022-09-28T13:15:04;40.97;;;35.25;;
41512;SDS011;27244;59.940;30.280;2022-09-28T13:17:44;42.75;;;36.58;;
41512;SDS011;27244;59.940;30.280;2022-09-28T13:20:30;43.60;;;37.17;;
41512;SDS011;27244;59.940;30.280;2022-09-28T13:23:11;44.28;;;39.28;;
41512;SDS011;27244;59.940;30.280;2022-09-28T13:25:46;45.28;;;39.83;;
41512;SDS011;27244;59.940;30.280;2022-09-28T13:31:09;54.30;;;46.50;;
41512;SDS011;27244;59.940;30.280;2022-09-28T13:34:32;53.42;;;47.03;;
41512;SDS011;27244;59.940;30.280;2022-09-28T13:37:18;54.25;;;47.08;;
41512;SDS011;27244;59.940;30.280;2022-09-28T13:39:48;55.65;;;47.63;;
41512;SDS011;27244;59.940;30.280;2022-09-28T13:42:23;52.15;;;45.80;;
41512;SDS011;27244;59.940;30.280;2022-09-28T13:47:48;56.22;;;49.33;;
41512;SDS011;27244;59.940;30.280;2022-09-28T13:50:26;54.63;;;48.30;;
41512;SDS011;27244;59.940;30.280;2022-09-28T13:53:03;58.63;;;51.00;;
41512;SDS011;27244;59.940;30.280;2022-09-28T13:55:47;57.63;;;51.28;;
41512;SDS011;27244;59.940;30.280;2022-09-28T13:58:23;59.60;;;52.13;;
41512;SDS011;27244;59.940;30.280;2022-09-28T14:00:55;55.70;;;49.50;;
41512;SDS011;27244;59.940;30.280;2022-09-28T14:03:40;57.00;;;48.15;;
41512;SDS011;27244;59.940;30.280;2022-09-28T14:11:54;50.10;;;44.67;;
41512;SDS011;27244;59.940;30.280;2022-09-28T14:14:26;52.97;;;44.85;;
41512;SDS011;27244;59.940;30.280;2022-09-28T14:20:21;48.35;;;42.88;;
41512;SDS011;27244;59.940;30.280;2022-09-28T14:23:01;46.15;;;41.10;;
41512;SDS011;27244;59.940;30.280;2022-09-28T14:25:57;44.80;;;38.72;;
41512;SDS011;27244;59.940;30.280;2022-09-28T14:28:41;43.67;;;38.78;;
41512;SDS011;27244;59.940;30.280;2022-09-28T14:31:19;42.60;;;38.00;;
41512;SDS011;27244;59.940;30.280;2022-09-28T14:33:55;42.63;;;37.75;;
41512;SDS011;27244;59.940;30.280;2022-09-28T14:36:26;41.65;;;36.75;;
41512;SDS011;27244;59.940;30.280;2022-09-28T14:39:20;40.33;;;35.92;;
41512;SDS011;27244;59.940;30.280;2022-09-28T15:08:35;39.92;;;34.58;;
41512;SDS011;27244;59.940;30.280;2022-09-28T15:11:03;40.83;;;33.20;;
41512;SDS011;27244;59.940;30.280;2022-09-28T15:13:35;37.15;;;32.50;;
41512;SDS011;27244;59.940;30.280;2022-09-28T15:16:05;37.72;;;31.30;;
41512;SDS011;27244;59.940;30.280;2022-09-28T15:21:48;38.67;;;32.47;;
41512;SDS011;27244;59.940;30.280;2022-09-28T15:24:27;32.75;;;29.25;;
41512;SDS011;27244;59.940;30.280;2022-09-28T15:26:57;35.80;;;31.65;;
41512;SDS011;27244;59.940;30.280;2022-09-28T15:29:24;32.03;;;28.33;;
41512;SDS011;27244;59.940;30.280;2022-09-28T15:31:58;31.95;;;28.58;;
41512;SDS011;27244;59.940;30.280;2022-09-28T15:34:26;32.80;;;29.30;;
41512;SDS011;27244;59.940;30.280;2022-09-28T15:37:15;35.00;;;28.83;;
41512;SDS011;27244;59.940;30.280;2022-09-28T15:42:15;32.38;;;28.35;;
41512;SDS011;27244;59.940;30.280;2022-09-28T15:44:44;33.20;;;29.70;;
41512;SDS011;27244;59.940;30.280;2022-09-28T15:47:27;33.50;;;29.98;;
41512;SDS011;27244;59.940;30.280;2022-09-28T15:49:57;31.60;;;28.30;;
41512;SDS011;27244;59.940;30.280;2022-09-28T15:52:27;31.65;;;28.23;;
41512;SDS011;27244;59.940;30.280;2022-09-28T15:55:02;31.55;;;28.15;;
41512;SDS011;27244;59.940;30.280;2022-09-28T15:57:41;35.80;;;30.15;;
41512;SDS011;27244;59.940;30.280;2022-09-28T16:00:20;32.05;;;28.50;;
41512;SDS011;27244;59.940;30.280;2022-09-28T16:02:59;29.63;;;26.23;;
41512;SDS011;27244;59.940;30.280;2022-09-28T16:05:35;30.55;;;27.25;;
41512;SDS011;27244;59.940;30.280;2022-09-28T16:08:14;29.05;;;25.85;;
41512;SDS011;27244;59.940;30.280;2022-09-28T16:10:58;28.63;;;25.63;;
41512;SDS011;27244;59.940;30.280;2022-09-28T16:13:51;27.13;;;24.38;;
41512;SDS011;27244;59.940;30.280;2022-09-28T16:16:27;27.33;;;24.52;;
41512;SDS011;27244;59.940;30.280;2022-09-28T16:19:00;25.63;;;23.00;;
41512;SDS011;27244;59.940;30.280;2022-09-28T16:21:42;27.17;;;24.38;;
41512;SDS011;27244;59.940;30.280;2022-09-28T16:24:20;25.90;;;23.20;;